Balmedie, United Kingdom
Current Conditions -  °F | °C
As of 4:50 PM on Tuesday 27 Jan 2015 (Local Time) from EGPD Reporting Station
Rain Showers Rain Showers  
Wind Chill: 42°   Ceiling: Unl
Heat Index: 45°   Visibility: 6mi
Dew Point: 37°   Wind: 5mph
Humidity: 76%   Direction: 200°SSW
Pressure: 29.88"   Gusts: NA
Location:  57.25°N, 2.06°W
Report Text: EGPD 271650Z 20004KT 9999 -SHRA NSC 07/03 Q1012 NOSIG
Loading
Personal Weather Stations






























Interactive Weather Map New forecast layout! Learn more

10-Day Weather Forecast

Advertisements
Track Severe Weather on mobile